Terminal Aerodrome Forecast
Issued by NWS Tuscon, AZ

Home | Current Version | Previous Version | Text Only | Print | Product List | Glossary On
Versions: 1 2 3 4 5 6 7 8 9 10 11 12 13 14 15 16
000
FTUS45 KTWC 262332
TAFDUG
TAF
KDUG 262332Z 2700/2724 23022G32KT P6SM SKC
     FM270300 25011KT P6SM SKC
     FM270700 35007KT P6SM SKC
     FM271100 VRB04KT P6SM SKC
     FM271800 24013G23KT P6SM SKC=

USA.gov is the U.S. government's official web portal to all federal, state and local government web resources and services.